createdAt,value
2022-09-25T00:00:18.257Z,100258.28
2022-09-25T00:01:22.785Z,100255.69
2022-09-25T00:02:24.718Z,100263.78
2022-09-25T00:03:29.923Z,100255.13
2022-09-25T00:04:32.350Z,100261.47
2022-09-25T00:05:39.898Z,100254.44
2022-09-25T00:06:42.433Z,100254.56
2022-09-25T00:07:46.967Z,100256.44
2022-09-25T00:08:48.869Z,100254.84
2022-09-25T00:09:53.286Z,100253.16
2022-09-25T00:10:55.107Z,100260.34
2022-09-25T00:12:01.038Z,100256.97
2022-09-25T00:13:02.922Z,100246.44
2022-09-25T00:14:07.460Z,100250.00
2022-09-25T00:15:09.476Z,100254.63
2022-09-25T00:16:14.776Z,100252.91
2022-09-25T00:17:16.738Z,100252.97
2022-09-25T00:18:42.151Z,100249.53
2022-09-25T00:19:53.009Z,100249.59
2022-09-25T00:21:01.196Z,100247.03
2022-09-25T00:22:03.136Z,100245.31
2022-09-25T00:23:07.581Z,100247.16
2022-09-25T00:24:10.070Z,100250.78
2022-09-25T00:25:16.074Z,100250.78
2022-09-25T00:26:17.978Z,100246.47
2022-09-25T00:27:22.576Z,100241.31
2022-09-25T00:28:24.416Z,100249.31
2022-09-25T00:29:31.051Z,100245.03
2022-09-25T00:30:32.913Z,100243.41
2022-09-25T00:31:37.540Z,100242.63
2022-09-25T00:32:39.464Z,100242.75
2022-09-25T00:33:43.988Z,100246.31
2022-09-25T00:34:45.829Z,100234.88
2022-09-25T00:35:50.365Z,100237.44
2022-09-25T00:36:52.183Z,100226.84
2022-09-25T00:37:56.618Z,100232.09
2022-09-25T00:38:58.517Z,100222.34
2022-09-25T00:40:03.034Z,100224.94
2022-09-25T00:41:05.844Z,100227.50
2022-09-25T00:42:10.291Z,100228.44
2022-09-25T00:43:15.606Z,100220.50
2022-09-25T00:44:38.954Z,100223.13
2022-09-25T00:45:41.010Z,100216.91
2022-09-25T00:46:45.596Z,100223.13
2022-09-25T00:47:50.239Z,100217.84
2022-09-25T00:48:56.579Z,100214.41
2022-09-25T00:49:58.610Z,100205.66
2022-09-25T00:51:03.100Z,100213.59
2022-09-25T00:52:07.758Z,100210.09
2022-09-25T00:53:13.467Z,100211.88
2022-09-25T00:54:18.510Z,100212.75
2022-09-25T00:55:24.039Z,100205.66
2022-09-25T00:56:25.846Z,100210.97
2022-09-25T00:57:31.196Z,100214.53
2022-09-25T00:58:33.734Z,100212.81
2022-09-25T00:59:39.639Z,100208.44
2022-09-25T01:00:41.466Z,100217.31
2022-09-25T01:01:46.042Z,100214.84
2022-09-25T01:02:53.087Z,100214.84
2022-09-25T01:03:58.285Z,100206.97
2022-09-25T01:05:01.481Z,100207.91
2022-09-25T01:06:06.039Z,100208.81
2022-09-25T01:07:09.222Z,100208.88
2022-09-25T01:08:15.531Z,100211.53
2022-09-25T01:09:17.350Z,100210.75
2022-09-25T01:10:22.449Z,100216.97
2022-09-25T01:11:26.862Z,100209.03
2022-09-25T01:12:28.635Z,100214.41
2022-09-25T01:13:33.011Z,100210.88
2022-09-25T01:14:34.923Z,100204.81
2022-09-25T01:15:41.567Z,100210.94
2022-09-25T01:16:43.432Z,100212.66
2022-09-25T01:18:05.000Z,100203.09
2022-09-25T01:19:06.804Z,100201.22
2022-09-25T01:20:15.949Z,100202.94
2022-09-25T01:21:40.799Z,100204.66
2022-09-25T01:22:57.705Z,100206.38
2022-09-25T01:23:59.510Z,100199.38
2022-09-25T01:25:06.585Z,100208.09
2022-09-25T01:26:11.440Z,100197.50
2022-09-25T01:27:29.921Z,100196.56
2022-09-25T01:28:50.320Z,100200.94
2022-09-25T01:30:03.625Z,100202.53
2022-09-25T01:31:09.176Z,100198.09
2022-09-25T01:32:25.456Z,100197.13
2022-09-25T01:33:35.058Z,100193.66
2022-09-25T01:34:42.310Z,100197.22
2022-09-25T01:35:46.474Z,100193.78
2022-09-25T01:36:51.940Z,100193.00
2022-09-25T01:37:55.496Z,100196.66
2022-09-25T01:39:00.687Z,100195.00
2022-09-25T01:40:19.224Z,100188.94
2022-09-25T01:41:26.081Z,100193.38
2022-09-25T01:42:32.006Z,100189.94
2022-09-25T01:43:56.148Z,100194.38
2022-09-25T01:45:00.037Z,100187.31
2022-09-25T01:46:05.471Z,100191.75
2022-09-25T01:47:11.156Z,100187.47
2022-09-25T01:48:16.960Z,100184.00
2022-09-25T01:49:18.709Z,100184.00
2022-09-25T01:50:46.420Z,100187.59
2022-09-25T01:51:52.670Z,100184.09
2022-09-25T01:52:57.919Z,100185.88
2022-09-25T01:54:00.955Z,100185.03
2022-09-25T01:55:20.674Z,100188.63
2022-09-25T01:56:32.995Z,100186.03
2022-09-25T01:57:39.402Z,100181.69
2022-09-25T01:58:42.850Z,100185.25
2022-09-25T01:59:52.978Z,100175.59
2022-09-25T02:00:56.989Z,100176.50
2022-09-25T02:02:02.600Z,100180.09
2022-09-25T02:03:16.024Z,100182.66
2022-09-25T02:04:22.754Z,100180.09
2022-09-25T02:05:29.783Z,100174.00
2022-09-25T02:06:34.908Z,100175.03
2022-09-25T02:07:38.085Z,100174.16
2022-09-25T02:08:44.179Z,100173.31
2022-09-25T02:09:53.062Z,100170.66
2022-09-25T02:10:58.899Z,100175.09
2022-09-25T02:12:01.852Z,100173.38
2022-09-25T02:13:11.098Z,100176.94
2022-09-25T02:14:15.718Z,100178.72
2022-09-25T02:15:21.934Z,100180.53
2022-09-25T02:16:26.535Z,100170.06
2022-09-25T02:17:44.916Z,100176.28
2022-09-25T02:19:01.768Z,100167.56
2022-09-25T02:20:18.965Z,100169.44
2022-09-25T02:21:23.398Z,100167.72
2022-09-25T02:22:26.074Z,100165.06
2022-09-25T02:23:33.845Z,100160.78
2022-09-25T02:24:59.287Z,100164.28
2022-09-25T02:26:14.678Z,100155.53
2022-09-25T02:27:16.603Z,100151.97
2022-09-25T02:28:21.148Z,100157.28
2022-09-25T02:29:23.367Z,100153.81
2022-09-25T02:30:28.271Z,100152.09
2022-09-25T02:31:32.317Z,100152.16
2022-09-25T02:32:36.820Z,100150.31
2022-09-25T02:33:38.604Z,100146.03
2022-09-25T02:34:43.066Z,100147.81
2022-09-25T02:35:44.925Z,100141.66
2022-09-25T02:36:49.378Z,100146.03
2022-09-25T02:37:51.247Z,100142.59
2022-09-25T02:38:56.001Z,100150.53
2022-09-25T02:39:58.814Z,100143.53
2022-09-25T02:41:08.198Z,100151.47
2022-09-25T02:42:28.228Z,100144.47
2022-09-25T02:43:32.600Z,100142.81
2022-09-25T02:44:52.718Z,100150.81
2022-09-25T02:45:57.785Z,100149.09
2022-09-25T02:47:14.894Z,100143.88
2022-09-25T02:48:25.785Z,100148.38
2022-09-25T02:49:27.531Z,100147.50
2022-09-25T02:50:31.921Z,100144.88
2022-09-25T02:51:38.756Z,100151.94
2022-09-25T02:52:55.508Z,100149.38
2022-09-25T02:54:00.231Z,100140.66
2022-09-25T02:55:22.307Z,100138.88
2022-09-25T02:56:33.177Z,100136.22
2022-09-25T02:57:48.413Z,100142.38
2022-09-25T02:58:51.390Z,100138.00
2022-09-25T02:59:56.590Z,100138.00
2022-09-25T03:00:58.415Z,100142.38
2022-09-25T03:02:02.956Z,100135.38
2022-09-25T03:03:04.927Z,100138.88
2022-09-25T03:04:09.397Z,100137.09
2022-09-25T03:05:11.768Z,100137.94
2022-09-25T03:06:16.199Z,100139.72
2022-09-25T03:07:17.999Z,100134.50
2022-09-25T03:08:35.169Z,100136.16
2022-09-25T03:09:39.747Z,100125.47
2022-09-25T03:10:46.203Z,100128.06
2022-09-25T03:12:00.943Z,100128.84
2022-09-25T03:13:23.265Z,100128.84
2022-09-25T03:14:27.701Z,100124.44
2022-09-25T03:15:29.506Z,100131.50
2022-09-25T03:16:34.534Z,100124.50
2022-09-25T03:17:37.479Z,100132.44
2022-09-25T03:18:41.875Z,100129.78
2022-09-25T03:19:43.648Z,100121.06
2022-09-25T03:20:48.054Z,100125.41
2022-09-25T03:21:54.223Z,100129.91
2022-09-25T03:22:56.094Z,100117.66
2022-09-25T03:24:00.483Z,100122.06
2022-09-25T03:25:02.254Z,100124.63
2022-09-25T03:26:07.730Z,100122.94
2022-09-25T03:27:09.636Z,100122.94
2022-09-25T03:28:14.327Z,100121.22
2022-09-25T03:29:17.459Z,100122.06
2022-09-25T03:30:21.857Z,100120.34
2022-09-25T03:31:23.765Z,100119.50
2022-09-25T03:32:28.199Z,100124.00
2022-09-25T03:33:30.671Z,100125.78
2022-09-25T03:34:35.074Z,100128.50
2022-09-25T03:35:37.463Z,100123.50
2022-09-25T03:36:41.888Z,100130.34
2022-09-25T03:37:43.754Z,100126.78
2022-09-25T03:38:49.314Z,100129.47
2022-09-25T03:39:51.094Z,100122.47
2022-09-25T03:40:55.613Z,100123.34
2022-09-25T03:42:00.063Z,100125.22
2022-09-25T03:44:06.971Z,100125.13
2022-09-25T03:45:10.058Z,100125.97
2022-09-25T03:46:15.031Z,100126.84
2022-09-25T03:47:16.847Z,100126.03
2022-09-25T03:48:21.796Z,100125.22
2022-09-25T03:49:26.158Z,100129.66
2022-09-25T03:50:27.950Z,100125.22
2022-09-25T03:51:33.614Z,100124.34
2022-09-25T03:52:35.403Z,100126.13
2022-09-25T03:53:40.218Z,100125.22
2022-09-25T03:54:42.082Z,100127.84
2022-09-25T03:55:47.008Z,100127.84
2022-09-25T03:56:51.562Z,100125.22
2022-09-25T03:57:53.354Z,100124.41
2022-09-25T03:58:57.845Z,100131.50
2022-09-25T04:00:02.181Z,100129.72
2022-09-25T04:01:19.015Z,100123.63
2022-09-25T04:02:20.872Z,100125.47
2022-09-25T04:03:26.794Z,100125.59
2022-09-25T04:04:30.145Z,100130.91
2022-09-25T04:05:35.062Z,100130.09
2022-09-25T04:06:36.832Z,100134.63
2022-09-25T04:07:41.298Z,100126.75
2022-09-25T04:08:43.087Z,100125.91
2022-09-25T04:09:47.510Z,100130.38
2022-09-25T04:10:49.307Z,100133.03
2022-09-25T04:11:55.376Z,100126.94
2022-09-25T04:12:57.326Z,100128.66
2022-09-25T04:14:02.095Z,100115.44
2022-09-25T04:15:03.991Z,100127.75
2022-09-25T04:16:09.257Z,100122.47
2022-09-25T04:17:11.623Z,100120.59
2022-09-25T04:18:16.018Z,100116.13
2022-09-25T04:19:17.805Z,100127.44
2022-09-25T04:20:22.382Z,100118.59
2022-09-25T04:21:24.196Z,100127.38
2022-09-25T04:22:28.563Z,100127.25
2022-09-25T04:23:30.528Z,100119.25
2022-09-25T04:24:47.346Z,100122.69
2022-09-25T04:25:51.842Z,100113.78
2022-09-25T04:26:53.825Z,100114.63
2022-09-25T04:27:58.559Z,100120.69
2022-09-25T04:29:01.520Z,100114.47
2022-09-25T04:30:07.202Z,100110.91
2022-09-25T04:31:09.094Z,100119.63
2022-09-25T04:32:26.056Z,100114.34
2022-09-25T04:33:42.896Z,100112.50
2022-09-25T04:34:47.262Z,100111.41
2022-09-25T04:35:49.456Z,100120.13
2022-09-25T04:36:53.888Z,100112.13
2022-09-25T04:37:55.667Z,100112.06
2022-09-25T04:39:00.099Z,100116.34
2022-09-25T04:40:02.027Z,100122.38
2022-09-25T04:41:08.203Z,100116.06
2022-09-25T04:42:10.012Z,100116.78
2022-09-25T04:43:14.505Z,100111.34
2022-09-25T04:44:16.290Z,100112.91
2022-09-25T04:45:20.641Z,100114.47
2022-09-25T04:46:23.042Z,100108.13
2022-09-25T04:47:30.143Z,100115.94
2022-09-25T04:48:32.391Z,100107.75
2022-09-25T04:49:37.593Z,100098.81
2022-09-25T04:50:42.394Z,100100.31
2022-09-25T04:51:44.172Z,100099.28
2022-09-25T04:52:49.933Z,100095.56
2022-09-25T04:53:51.963Z,100098.91
2022-09-25T04:54:56.387Z,100093.44
2022-09-25T04:56:02.097Z,100095.94
2022-09-25T04:57:06.503Z,100095.72
2022-09-25T04:58:08.364Z,100093.81
2022-09-25T04:59:13.001Z,100094.53
2022-09-25T05:00:17.217Z,100085.53
2022-09-25T05:01:22.237Z,100093.31
2022-09-25T05:02:28.136Z,100091.28
2022-09-25T05:03:33.496Z,100091.94
2022-09-25T05:04:35.378Z,100107.50
2022-09-25T05:05:39.770Z,100101.06
2022-09-25T05:06:41.886Z,100102.44
2022-09-25T05:07:56.308Z,100107.38
2022-09-25T05:08:58.260Z,100106.13
2022-09-25T05:10:02.626Z,100099.66
2022-09-25T05:11:04.463Z,100096.91
2022-09-25T05:12:09.315Z,100115.59
2022-09-25T05:13:11.266Z,100111.72
2022-09-25T05:14:15.693Z,100118.41
2022-09-25T05:15:18.032Z,100109.16
2022-09-25T05:16:22.850Z,100110.56
2022-09-25T05:17:24.677Z,100117.25
2022-09-25T05:18:29.078Z,100116.94
2022-09-25T05:19:31.157Z,100112.16
2022-09-25T05:20:35.606Z,100118.00
2022-09-25T05:21:37.454Z,100118.50
2022-09-25T05:22:41.899Z,100116.47
2022-09-25T05:23:43.710Z,100123.22
2022-09-25T05:24:48.118Z,100124.72
2022-09-25T05:25:56.720Z,100128.63
2022-09-25T05:27:01.183Z,100125.56
2022-09-25T05:28:03.341Z,100126.09
2022-09-25T05:29:07.901Z,100125.72
2022-09-25T05:30:11.321Z,100131.56
2022-09-25T05:31:16.737Z,100130.34
2022-09-25T05:32:18.977Z,100131.91
2022-09-25T05:33:23.704Z,100133.25
2022-09-25T05:34:25.472Z,100141.81
2022-09-25T05:35:30.886Z,100142.34
2022-09-25T05:36:33.411Z,100155.34
2022-09-25T05:37:37.831Z,100151.47
2022-09-25T05:38:40.102Z,100157.19
2022-09-25T05:39:44.514Z,100156.06
2022-09-25T05:40:46.362Z,100152.94
2022-09-25T05:41:50.829Z,100157.81
2022-09-25T05:42:53.095Z,100165.44
2022-09-25T05:43:58.175Z,100162.31
2022-09-25T05:45:04.910Z,100161.09
2022-09-25T05:46:12.271Z,100160.66
2022-09-25T05:47:14.231Z,100161.16
2022-09-25T05:48:18.663Z,100160.75
2022-09-25T05:49:20.584Z,100159.44
2022-09-25T05:50:25.397Z,100168.69
2022-09-25T05:51:27.189Z,100163.84
2022-09-25T05:52:31.580Z,100167.84
2022-09-25T05:53:36.252Z,100166.50
2022-09-25T05:54:38.098Z,100161.19
2022-09-25T05:55:42.583Z,100169.19
2022-09-25T05:56:44.383Z,100173.16
2022-09-25T05:57:48.789Z,100173.75
2022-09-25T05:58:51.002Z,100184.66
2022-09-25T05:59:55.402Z,100184.19
2022-09-25T06:01:03.268Z,100180.28
2022-09-25T06:02:05.170Z,100190.16
2022-09-25T06:03:11.061Z,100186.81
2022-09-25T06:04:15.588Z,100186.22
2022-09-25T06:05:17.466Z,100184.69
2022-09-25T06:06:26.707Z,100190.38
2022-09-25T06:07:29.412Z,100201.31
2022-09-25T06:08:35.688Z,100208.78
2022-09-25T06:09:37.573Z,100203.06
2022-09-25T06:10:42.515Z,100208.00
2022-09-25T06:11:47.670Z,100212.94
2022-09-25T06:12:49.503Z,100215.19
2022-09-25T06:13:54.705Z,100224.69
2022-09-25T06:14:56.654Z,100219.16
2022-09-25T06:16:01.077Z,100228.78
2022-09-25T06:17:03.055Z,100228.56
2022-09-25T06:18:10.961Z,100232.84
2022-09-25T06:19:12.769Z,100241.41
2022-09-25T06:20:17.223Z,100241.19
2022-09-25T06:21:19.122Z,100238.22
2022-09-25T06:22:23.522Z,100237.91
2022-09-25T06:23:25.298Z,100234.06
2022-09-25T06:24:29.695Z,100240.06
2022-09-25T06:25:32.672Z,100245.97
2022-09-25T06:26:37.580Z,100248.41
2022-09-25T06:27:39.408Z,100243.72
2022-09-25T06:28:43.802Z,100246.94
2022-09-25T06:29:45.743Z,100251.94
2022-09-25T06:30:50.168Z,100254.31
2022-09-25T06:31:52.214Z,100259.22
2022-09-25T06:33:02.912Z,100260.63
2022-09-25T06:34:05.351Z,100270.00
2022-09-25T06:35:10.197Z,100259.88
2022-09-25T06:36:12.008Z,100270.13
2022-09-25T06:37:16.431Z,100272.53
2022-09-25T06:38:18.231Z,100269.53
2022-09-25T06:39:22.721Z,100279.03
2022-09-25T06:40:27.262Z,100282.34
2022-09-25T06:41:32.498Z,100279.38
2022-09-25T06:42:37.388Z,100281.59
2022-09-25T06:43:41.904Z,100282.13
2022-09-25T06:44:44.196Z,100278.16
2022-09-25T06:45:48.951Z,100282.34
2022-09-25T06:46:51.131Z,100284.69
2022-09-25T06:47:57.902Z,100279.84
2022-09-25T06:49:02.292Z,100278.56
2022-09-25T06:50:04.322Z,100283.56
2022-09-25T06:51:08.821Z,100274.38
2022-09-25T06:52:10.887Z,100286.56
2022-09-25T06:53:15.802Z,100280.13
2022-09-25T06:54:17.860Z,100281.63
2022-09-25T06:55:22.243Z,100280.31
2022-09-25T06:56:26.843Z,100282.75
2022-09-25T06:57:28.912Z,100276.13
2022-09-25T06:58:33.312Z,100275.78
2022-09-25T06:59:35.170Z,100278.00
2022-09-25T07:00:39.559Z,100276.59
2022-09-25T07:01:41.389Z,100281.69
2022-09-25T07:02:58.474Z,100276.13
2022-09-25T07:04:04.458Z,100286.41
2022-09-25T07:05:06.427Z,100279.06
2022-09-25T07:06:11.549Z,100290.41
2022-09-25T07:07:13.895Z,100285.69
2022-09-25T07:08:21.144Z,100285.22
2022-09-25T07:09:25.912Z,100282.22
2022-09-25T07:10:27.694Z,100282.88
2022-09-25T07:11:32.357Z,100281.44
2022-09-25T07:12:34.569Z,100283.63
2022-09-25T07:13:39.800Z,100277.94
2022-09-25T07:14:43.870Z,100276.84
2022-09-25T07:15:55.137Z,100283.81
2022-09-25T07:16:56.943Z,100280.75
2022-09-25T07:18:01.341Z,100277.09
2022-09-25T07:19:05.895Z,100289.66
2022-09-25T07:20:08.323Z,100287.59
2022-09-25T07:21:14.177Z,100293.59
2022-09-25T07:22:16.153Z,100282.59
2022-09-25T07:23:21.663Z,100286.88
2022-09-25T07:24:23.451Z,100287.63
2022-09-25T07:25:27.815Z,100291.03
2022-09-25T07:26:34.647Z,100284.47
2022-09-25T07:27:36.619Z,100285.94
2022-09-25T07:28:41.395Z,100276.91
2022-09-25T07:29:43.299Z,100289.00
2022-09-25T07:30:47.984Z,100284.13
2022-09-25T07:31:52.387Z,100285.38
2022-09-25T07:32:59.180Z,100284.00
2022-09-25T07:34:09.446Z,100285.25
2022-09-25T07:35:11.522Z,100286.72
2022-09-25T07:36:16.006Z,100290.50
2022-09-25T07:37:18.203Z,100298.19
2022-09-25T07:38:23.380Z,100294.03
2022-09-25T07:39:27.835Z,100294.41
2022-09-25T07:40:33.924Z,100290.38
2022-09-25T07:41:39.050Z,100288.94
2022-09-25T07:42:41.748Z,100293.78
2022-09-25T07:43:46.178Z,100291.34
2022-09-25T07:44:48.959Z,100297.19
2022-09-25T07:45:54.879Z,100292.31
2022-09-25T07:46:56.717Z,100291.09
2022-09-25T07:48:01.506Z,100293.25
2022-09-25T07:49:05.989Z,100298.16
2022-09-25T07:50:10.937Z,100296.88
2022-09-25T07:51:19.134Z,100291.16
2022-09-25T07:52:21.491Z,100287.09
2022-09-25T07:53:25.853Z,100289.28
2022-09-25T07:54:30.278Z,100287.06
2022-09-25T07:55:34.751Z,100285.09
2022-09-25T07:56:38.406Z,100285.56
2022-09-25T07:57:44.073Z,100291.66
2022-09-25T07:58:45.882Z,100293.81
2022-09-25T07:59:50.717Z,100292.59
2022-09-25T08:00:55.788Z,100298.44
2022-09-25T08:01:58.356Z,100297.19
2022-09-25T08:03:02.837Z,100299.63
2022-09-25T08:04:04.731Z,100300.22
2022-09-25T08:05:09.503Z,100297.00
2022-09-25T08:06:12.991Z,100295.91
2022-09-25T08:07:17.390Z,100295.69
2022-09-25T08:08:22.225Z,100293.44
2022-09-25T08:09:24.105Z,100303.81
2022-09-25T08:10:28.474Z,100294.34
2022-09-25T08:11:31.311Z,100301.91
2022-09-25T08:12:35.719Z,100294.13
2022-09-25T08:13:38.480Z,100299.00
2022-09-25T08:14:42.931Z,100299.59
2022-09-25T08:15:44.841Z,100301.88
2022-09-25T08:16:49.257Z,100297.81
2022-09-25T08:17:51.488Z,100298.25
2022-09-25T08:18:55.879Z,100301.41
2022-09-25T08:19:58.251Z,100298.16
2022-09-25T08:21:05.858Z,100296.03
2022-09-25T08:22:07.648Z,100305.44
2022-09-25T08:23:12.466Z,100294.38
2022-09-25T08:24:14.435Z,100295.81
2022-09-25T08:25:18.861Z,100299.22
2022-09-25T08:26:21.270Z,100296.41
2022-09-25T08:27:25.781Z,100300.69
2022-09-25T08:28:27.936Z,100302.09
2022-09-25T08:29:32.463Z,100300.84
2022-09-25T08:30:34.718Z,100304.13
2022-09-25T08:31:39.326Z,100309.34
2022-09-25T08:32:41.237Z,100295.31
2022-09-25T08:33:49.395Z,100309.78
2022-09-25T08:34:51.178Z,100296.81
2022-09-25T08:36:02.772Z,100305.56
2022-09-25T08:37:04.590Z,100298.50
2022-09-25T08:38:08.972Z,100295.34
2022-09-25T08:39:10.867Z,100298.50
2022-09-25T08:40:19.221Z,100298.50
2022-09-25T08:41:21.057Z,100306.59
2022-09-25T08:42:30.596Z,100293.94
2022-09-25T08:43:32.866Z,100291.41
2022-09-25T08:44:52.568Z,100291.69
2022-09-25T08:46:26.046Z,100287.38
2022-09-25T08:47:42.907Z,100287.78
2022-09-25T08:49:03.275Z,100288.34
2022-09-25T08:50:08.910Z,100283.94
2022-09-25T08:51:10.755Z,100288.88
2022-09-25T08:52:17.324Z,100288.63
2022-09-25T08:53:24.669Z,100284.66
2022-09-25T08:54:29.625Z,100285.38
2022-09-25T08:55:47.036Z,100282.41
2022-09-25T08:57:12.844Z,100277.47
2022-09-25T08:58:17.081Z,100276.38
2022-09-25T08:59:38.699Z,100278.09
2022-09-25T09:00:40.554Z,100279.69
2022-09-25T09:01:49.988Z,100279.53
2022-09-25T09:02:55.657Z,100278.41
2022-09-25T09:04:07.208Z,100264.50
2022-09-25T09:05:23.248Z,100262.53
2022-09-25T09:06:26.268Z,100267.34
2022-09-25T09:07:39.364Z,100267.91
2022-09-25T09:08:41.335Z,100272.13
2022-09-25T09:09:50.602Z,100268.59
2022-09-25T09:10:54.508Z,100271.38
2022-09-25T09:12:00.907Z,100275.03
2022-09-25T09:13:12.671Z,100268.94
2022-09-25T09:14:16.459Z,100264.91
2022-09-25T09:15:25.505Z,100273.72
2022-09-25T09:16:27.315Z,100268.03
2022-09-25T09:17:32.435Z,100262.34
2022-09-25T09:18:37.225Z,100273.81
2022-09-25T09:19:41.610Z,100261.34
2022-09-25T09:20:46.024Z,100262.34
2022-09-25T09:21:57.479Z,100258.78
2022-09-25T09:22:59.337Z,100258.94
2022-09-25T09:24:09.451Z,100257.38
2022-09-25T09:25:32.579Z,100259.22
2022-09-25T09:26:37.290Z,100252.41
2022-09-25T09:27:42.618Z,100250.72
2022-09-25T09:29:05.702Z,100255.56
2022-09-25T09:30:16.961Z,100256.72
2022-09-25T09:31:22.154Z,100245.19
2022-09-25T09:32:32.790Z,100248.19
2022-09-25T09:33:35.175Z,100258.31
2022-09-25T09:36:14.095Z,100250.78
2022-09-25T09:37:16.155Z,100245.38
2022-09-25T09:38:32.335Z,100240.84
2022-09-25T09:39:59.610Z,100241.69
2022-09-25T09:41:22.871Z,100235.88
2022-09-25T09:43:00.109Z,100240.13
2022-09-25T09:44:04.818Z,100233.16
2022-09-25T09:45:19.670Z,100231.50
2022-09-25T09:46:27.290Z,100241.13
2022-09-25T09:47:39.493Z,100237.72
2022-09-25T09:48:44.434Z,100227.75
2022-09-25T09:50:07.973Z,100220.38
2022-09-25T09:51:14.092Z,100225.78
2022-09-25T09:52:44.709Z,100218.38
2022-09-25T09:54:00.322Z,100225.50
2022-09-25T09:55:17.351Z,100219.66
2022-09-25T09:56:22.996Z,100218.34
2022-09-25T09:57:25.907Z,100211.78
2022-09-25T09:58:48.725Z,100213.22
2022-09-25T10:00:00.622Z,100216.28
2022-09-25T10:02:48.921Z,100206.91
2022-09-25T10:03:54.303Z,100205.19
2022-09-25T10:04:59.602Z,100197.81
2022-09-25T10:06:05.323Z,100202.91
2022-09-25T10:07:09.107Z,100208.00
2022-09-25T10:08:13.548Z,100205.69
2022-09-25T10:09:15.957Z,100202.00
2022-09-25T10:10:20.958Z,100202.72
2022-09-25T10:11:22.727Z,100195.97
2022-09-25T10:12:34.250Z,100207.78
2022-09-25T10:13:38.736Z,100199.69
2022-09-25T10:14:45.247Z,100192.59
2022-09-25T10:15:52.413Z,100190.56
2022-09-25T10:16:56.880Z,100196.69
2022-09-25T10:18:02.062Z,100183.72
2022-09-25T10:19:10.183Z,100188.84
2022-09-25T10:20:16.306Z,100190.22
2022-09-25T10:21:21.842Z,100197.16
2022-09-25T10:22:28.202Z,100188.75
2022-09-25T10:23:40.762Z,100193.91
2022-09-25T10:24:49.880Z,100195.28
2022-09-25T10:25:56.242Z,100195.13
2022-09-25T10:26:58.213Z,100186.88
2022-09-25T10:28:02.620Z,100197.22
2022-09-25T10:29:13.223Z,100193.06
2022-09-25T10:30:15.051Z,100193.75
2022-09-25T10:31:19.917Z,100191.75
2022-09-25T10:32:21.806Z,100192.91
2022-09-25T10:33:27.182Z,100196.06
2022-09-25T10:34:29.778Z,100184.94
2022-09-25T10:35:56.300Z,100181.22
2022-09-25T10:36:58.187Z,100188.75
2022-09-25T10:38:03.265Z,100182.34
2022-09-25T10:39:39.125Z,100181.94
2022-09-25T10:40:31.960Z,100184.00
2022-09-25T10:41:44.125Z,100180.16
2022-09-25T10:42:46.850Z,100188.81
2022-09-25T10:43:54.511Z,100169.34
2022-09-25T10:44:58.005Z,100182.25
2022-09-25T10:46:38.496Z,100173.97
2022-09-25T10:47:55.333Z,100178.84
2022-09-25T10:49:22.278Z,100165.88
2022-09-25T10:50:24.800Z,100169.94
2022-09-25T10:51:29.461Z,100171.66
2022-09-25T10:52:44.266Z,100173.03
2022-09-25T10:53:49.034Z,100170.69
2022-09-25T10:54:52.500Z,100160.22
2022-09-25T10:55:59.173Z,100172.78
2022-09-25T10:57:03.627Z,100173.19
2022-09-25T10:58:07.235Z,100165.56
2022-09-25T10:59:21.641Z,100168.81
2022-09-25T11:00:24.923Z,100162.41
2022-09-25T11:01:38.090Z,100153.97
2022-09-25T11:02:41.068Z,100159.91
2022-09-25T11:03:48.591Z,100158.75
2022-09-25T11:04:51.857Z,100156.75
2022-09-25T11:06:00.378Z,100148.31
2022-09-25T11:07:07.187Z,100149.00
2022-09-25T11:08:09.462Z,100157.78
2022-09-25T11:09:20.670Z,100155.94
2022-09-25T11:10:23.712Z,100138.19
2022-09-25T11:11:30.888Z,100144.75
2022-09-25T11:12:32.831Z,100142.81
2022-09-25T11:13:40.410Z,100146.88
2022-09-25T11:14:55.347Z,100149.78
2022-09-25T11:15:58.674Z,100145.88
2022-09-25T11:17:06.046Z,100143.16
2022-09-25T11:18:09.204Z,100139.09
2022-09-25T11:19:15.135Z,100145.91
2022-09-25T11:20:17.760Z,100148.22
2022-09-25T11:21:35.482Z,100145.53
2022-09-25T11:22:39.850Z,100130.63
2022-09-25T11:23:43.871Z,100131.84
2022-09-25T11:24:51.413Z,100131.38
2022-09-25T11:26:09.400Z,100131.38
2022-09-25T11:27:25.710Z,100133.56
2022-09-25T11:28:31.032Z,100128.44
2022-09-25T11:29:44.391Z,100128.97
2022-09-25T11:30:48.893Z,100131.16
2022-09-25T11:32:06.518Z,100127.13
2022-09-25T11:33:16.794Z,100126.47
2022-09-25T11:34:21.215Z,100126.69
2022-09-25T11:35:37.968Z,100130.94
2022-09-25T11:37:11.797Z,100132.66
2022-09-25T11:38:16.378Z,100136.00
2022-09-25T11:39:38.995Z,100133.69
2022-09-25T11:41:02.955Z,100140.47
2022-09-25T11:42:30.601Z,100134.41
2022-09-25T11:43:32.408Z,100120.22
2022-09-25T11:44:45.058Z,100135.78
2022-09-25T11:45:51.931Z,100129.53
2022-09-25T11:47:09.350Z,100129.06
2022-09-25T11:48:26.422Z,100129.06
2022-09-25T11:49:32.207Z,100132.16
2022-09-25T11:51:06.073Z,100129.84
2022-09-25T11:52:28.165Z,100125.44
2022-09-25T11:53:44.693Z,100123.06
2022-09-25T11:54:49.405Z,100120.19
2022-09-25T11:56:14.039Z,100120.22
2022-09-25T11:57:36.149Z,100124.78
2022-09-25T11:58:43.983Z,100127.31
2022-09-25T12:00:04.592Z,100119.19
2022-09-25T12:01:11.074Z,100114.28
2022-09-25T12:02:15.977Z,100117.31
2022-09-25T12:03:20.979Z,100115.97
2022-09-25T12:04:44.254Z,100117.97
2022-09-25T12:06:00.795Z,100113.91
2022-09-25T12:07:05.958Z,100107.84
2022-09-25T12:08:10.366Z,100105.78
2022-09-25T12:09:16.561Z,100106.81
2022-09-25T12:10:30.511Z,100107.47
2022-09-25T12:11:45.975Z,100108.84
2022-09-25T12:12:50.408Z,100113.59
2022-09-25T12:14:01.496Z,100094.03
2022-09-25T12:15:11.843Z,100097.94
2022-09-25T12:16:39.613Z,100106.41
2022-09-25T12:17:48.390Z,100094.84
2022-09-25T12:18:55.511Z,100089.13
2022-09-25T12:20:23.285Z,100103.56
2022-09-25T12:21:35.119Z,100089.69
2022-09-25T12:22:39.508Z,100101.69
2022-09-25T12:23:58.075Z,100092.88
2022-09-25T12:25:16.524Z,100086.13
2022-09-25T12:26:35.916Z,100089.19
2022-09-25T12:27:43.834Z,100086.47
2022-09-25T12:29:06.975Z,100083.78
2022-09-25T12:30:21.865Z,100081.72
2022-09-25T12:31:41.627Z,100081.41
2022-09-25T12:33:05.267Z,100080.03
2022-09-25T12:34:28.781Z,100078.31
2022-09-25T12:35:37.150Z,100084.75
2022-09-25T12:36:45.992Z,100081.03
2022-09-25T12:37:53.201Z,100069.72
2022-09-25T12:39:05.340Z,100072.06
2022-09-25T12:40:12.394Z,100080.72
2022-09-25T12:41:21.405Z,100075.81
2022-09-25T12:42:35.663Z,100077.34
2022-09-25T12:43:45.854Z,100072.94
2022-09-25T12:44:47.682Z,100074.94
2022-09-25T12:45:54.016Z,100078.00